RJAH

Ibaraki/Hyakuri Airport

Airport
ICAO code
RJAH
Summary
ICAO Region
APAC
ICAO Territory
Location

Omitama, Ibaraki Prefecture

Serving
Tokyo
Elevation
107 ft
Coordinates
36° 10' 52" N , 140° 24' 54" E
Metar
Observation
RJAH 301000Z 30005KT 9999 FEW030 03/M07 Q1010
Station
Hyakuri Ab
Date/Time
2023-01-30 11:00:00
Wind direction
300°
Wind speed
05 kts
Lowest cloud amount
few clouds
Temperature
3°C
Dew point
-7°C
Humidity
47%
QNH
1010 hPa
Weather condition
n/a

Ibaraki Airport is an airport in the city of Omitama, Ibaraki Prefecture, Japan. It also serves as an air base for the Japan Air Self-Defense Force under the name Hyakuri Air Base, and is the closest fighter base to Tokyo. The airport was known as Hyakuri Airfield prior to March 2010, when civil aviation operations began.

Runways

Designator Length Width Surface Rops
3/21 2701 46 CON No/No

Airport map

Aerial View

SKYbrary Partners:

Safety knowledge contributed by: